Latest Weather Observations for Curtin

IDW60801

Issued at 8:13 am WST Tuesday 16 August 2022 (issued every 10 minutes, with the page automatically refreshed every 10 minutes)

About weather observations | Map of weather stations | Latest weather observations for WA | Other Formats
Station Details ID: 003080 Name: CURTIN AERO Lat: -17.58 Lon: 123.83 Height: 77.5 m
Data from the previous 72 hours. | See also: Recent months at Curtin
Date/Time
WST
Temp
°C
App
Temp
°C
Dew
Point
°C
Rel
Hum
%
Delta-T
°C
Wind Press
QNH
hPa
Press
MSL
hPa
Rain since
9am
mm
Dir  Spd
km/h
Gust
km/h
Spd
kts
Gust
kts
16/08:00am 24.8 18.6 -4.5 14 12.4 ENE 19 26 10 14 1015.1 1014.7 0.0
16/07:30am 23.3 17.6 -3.9 16 11.5 ENE 17 22 9 12 1014.7 1014.3 0.0
16/07:00am 21.2 15.9 -4.0 18 10.4 ENE 15 22 8 12 1014.3 1014.0 0.0
16/06:30am 19.5 14.5 -4.7 19 9.7 ENE 13 15 7 8 1014.0 1013.7 0.0
16/06:00am 20.1 14.3 -4.9 18 10.0 E 17 24 9 13 1013.4 1013.1 0.0
16/05:30am 21.0 14.8 -4.9 17 10.5 ESE 19 24 10 13 1013.0 1012.7 0.0
16/05:00am 20.7 14.5 -5.2 17 10.4 ESE 19 24 10 13 1012.9 1012.6 0.0
16/04:30am 21.0 14.7 -4.2 18 10.4 ESE 20 26 11 14 1012.6 1012.3 0.0
16/04:00am 21.4 15.1 -3.9 18 10.5 ESE 20 28 11 15 1012.5 1012.2 0.0
16/03:30am 21.2 15.2 -3.3 19 10.3 ESE 19 24 10 13 1012.5 1012.2 0.0
16/03:00am 20.3 14.3 -2.7 21 9.7 ESE 19 26 10 14 1012.7 1012.4 0.0
16/02:30am 20.3 14.2 -2.7 21 9.7 ESE 20 24 11 13 1012.9 1012.6 0.0
16/02:00am 21.7 15.7 -2.9 19 10.5 SE 19 26 10 14 1013.0 1012.7 0.0
16/01:30am 20.5 15.4 -1.9 22 9.6 SE 15 17 8 9 1013.3 1013.0 0.0
16/01:00am 20.7 15.6 -1.8 22 9.7 SE 15 17 8 9 1013.4 1013.1 0.0
16/12:30am 21.1 16.1 -1.4 22 9.8 SE 15 19 8 10 1013.6 1013.3 0.0
16/12:00am 21.3 16.7 -1.3 22 9.9 ESE 13 17 7 9 1013.9 1013.6 0.0
 
Date/Time
WST
Temp
°C
App
Temp
°C
Dew
Point
°C
Rel
Hum
%
Delta-T
°C
Wind Press
QNH
hPa
Press
MSL
hPa
Rain since
9am
mm
Dir  Spd
km/h
Gust
km/h
Spd
kts
Gust
kts
15/11:30pm 22.5 17.4 -2.2 19 10.7 ESE 15 17 8 9 1013.9 1013.6 0.0
15/11:00pm 24.5 19.3 -2.9 16 11.9 ESE 15 19 8 10 1013.7 1013.4 0.0
15/10:30pm 24.5 19.8 -2.1 17 11.8 ESE 13 17 7 9 1013.7 1013.4 0.0
15/10:00pm 24.6 20.0 -1.3 18 11.6 ESE 13 19 7 10 1013.8 1013.5 0.0
15/09:30pm 24.8 20.2 -1.1 18 11.7 ESE 13 15 7 8 1013.7 1013.4 0.0
15/09:00pm 25.1 20.5 -0.9 18 11.8 ESE 13 19 7 10 1013.5 1013.2 0.0
15/08:30pm 25.9 20.9 -1.0 17 12.3 ESE 15 19 8 10 1013.6 1013.3 0.0
15/08:00pm 26.6 21.7 -0.4 17 12.5 ESE 15 19 8 10 1013.2 1012.9 0.0
15/07:30pm 25.9 21.5 0.5 19 11.9 ESE 13 17 7 9 1012.8 1012.5 0.0
15/07:00pm 25.8 21.5 1.2 20 11.7 ESE 13 15 7 8 1012.4 1012.1 0.0
15/06:30pm 26.9 22.9 0.6 18 12.5 SE 11 15 6 8 1011.9 1011.6 0.0
15/06:00pm 28.7 24.4 1.3 17 13.3 SE 13 17 7 9 1011.6 1011.3 0.0
15/05:30pm 30.5 25.1 1.0 15 14.4 SE 19 26 10 14 1011.3 1011.0 0.0
15/05:00pm 31.8 26.4 1.0 14 15.2 ESE 19 24 10 13 1011.2 1010.9 0.0
15/04:30pm 32.4 26.1 1.5 14 15.4 SE 24 37 13 20 1011.0 1010.7 0.0
15/04:00pm 33.0 26.0 2.0 14 15.7 SE 28 41 15 22 1011.1 1010.8 0.0
15/03:30pm 33.5 28.1 2.4 14 15.9 SE 20 33 11 18 1011.1 1010.8 0.0
15/03:00pm 33.5 26.6 2.4 14 15.9 SSE 28 43 15 23 1011.2 1010.9 0.0
15/02:30pm 33.5 26.7 3.3 15 15.6 SE 28 39 15 21 1011.6 1011.3 0.0
15/02:00pm 33.5 26.9 4.2 16 15.4 SSE 28 41 15 22 1011.8 1011.5 0.0
15/01:30pm 33.4 27.2 4.2 16 15.3 SSE 26 35 14 19 1012.3 1012.0 0.0
15/01:00pm 33.7 27.5 4.4 16 15.5 ESE 26 35 14 19 1012.8 1012.5 0.0
15/12:30pm 33.0 27.3 4.7 17 14.9 SE 24 35 13 19 1013.4 1013.1 0.0
15/12:00pm 34.3 28.4 5.8 17 15.4 SE 26 35 14 19 1013.9 1013.6 0.0
15/11:47am 33.4 27.3 5.0 17 15.1 ESE 26 46 14 25 1014.1 1013.8 0.0
15/11:30am 32.9 27.1 4.6 17 14.9 SE 24 41 13 22 1014.5 1014.2 0.0
15/11:00am 32.8 27.2 3.7 16 15.1 E 22 33 12 18 1015.1 1014.7 0.0
15/10:30am 33.0 27.1 3.9 16 15.2 E 24 35 13 19 1015.7 1015.3 0.0
15/10:00am 31.6 24.7 2.7 16 14.6 E 28 41 15 22 1016.1 1015.7 0.0
15/09:30am 30.8 24.0 3.0 17 14.1 E 28 39 15 21 1016.3 1015.9 0.0
15/09:00am 29.9 23.3 2.2 17 13.8 E 26 33 14 18 1016.4 1016.0 0.0
15/08:30am 29.1 22.9 2.4 18 13.3 E 24 37 13 20 1016.3 1015.9 0.0
15/08:00am 26.9 20.7 2.1 20 12.1 E 24 32 13 17 1016.0 1015.6 0.0
15/07:30am 25.2 19.5 2.6 23 11.0 E 22 32 12 17 1015.8 1015.4 0.0
15/07:00am 23.1 18.0 3.1 27 9.6 E 19 24 10 13 1015.5 1015.1 0.0
15/06:30am 21.7 17.0 2.9 29 8.9 E 17 24 9 13 1015.1 1014.7 0.0
15/06:00am 21.0 16.2 2.8 30 8.6 ESE 17 24 9 13 1014.7 1014.3 0.0
15/05:30am 21.3 16.0 3.0 30 8.7 ESE 20 24 11 13 1014.2 1013.9 0.0
15/05:00am 21.7 16.0 2.9 29 8.9 ESE 22 32 12 17 1013.7 1013.4 0.0
15/04:30am 21.8 16.5 3.0 29 9.0 ESE 20 28 11 15 1013.6 1013.3 0.0
15/04:00am 22.5 16.8 3.1 28 9.3 ESE 22 32 12 17 1013.4 1013.1 0.0
15/03:30am 22.1 16.9 3.3 29 9.0 ESE 20 28 11 15 1013.3 1013.0 0.0
15/03:00am 22.0 17.7 3.2 29 9.0 ESE 15 20 8 11 1013.3 1013.0 0.0
15/02:30am 22.1 18.2 3.3 29 9.0 E 13 19 7 10 1013.1 1012.8 0.0
15/02:00am 23.4 19.0 2.8 26 9.9 ESE 15 19 8 10 1013.1 1012.8 0.0
15/01:30am 24.0 19.6 2.8 25 10.2 E 15 19 8 10 1013.1 1012.8 0.0
15/01:00am 24.2 19.8 2.9 25 10.3 E 15 20 8 11 1013.2 1012.9 0.0
15/12:30am 24.1 19.9 4.0 27 9.9 ESE 15 20 8 11 1013.3 1013.0 0.0
15/12:00am 23.8 20.1 4.2 28 9.7 ESE 13 17 7 9 1013.4 1013.1 0.0
 
Date/Time
WST
Temp
°C
App
Temp
°C
Dew
Point
°C
Rel
Hum
%
Delta-T
°C
Wind Press
QNH
hPa
Press
MSL
hPa
Rain since
9am
mm
Dir  Spd
km/h
Gust
km/h
Spd
kts
Gust
kts
14/11:30pm 24.5 20.1 4.8 28 9.9 ESE 17 20 9 11 1013.6 1013.3 0.0
14/11:00pm 24.5 20.6 5.3 29 9.7 ESE 15 19 8 10 1013.8 1013.5 0.0
14/10:30pm 24.8 21.0 5.6 29 9.8 ESE 15 19 8 10 1013.9 1013.6 0.0
14/10:00pm 25.4 21.6 5.6 28 10.2 ESE 15 19 8 10 1014.0 1013.7 0.0
14/09:30pm 26.1 22.3 5.7 27 10.5 ESE 15 19 8 10 1013.9 1013.6 0.0
14/09:00pm 26.1 22.7 5.7 27 10.5 ESE 13 15 7 8 1013.8 1013.5 0.0
14/08:30pm 26.7 23.2 5.6 26 10.9 ESE 13 15 7 8 1013.6 1013.3 0.0
14/08:00pm 27.3 23.9 6.1 26 11.1 ESE 13 15 7 8 1013.4 1013.1 0.0
14/07:30pm 28.0 24.7 6.2 25 11.5 ESE 13 17 7 9 1013.2 1012.9 0.0
14/07:00pm 28.3 25.0 6.4 25 11.6 ESE 13 17 7 9 1012.8 1012.5 0.0
14/06:30pm 28.7 25.7 6.1 24 11.9 SE 11 15 6 8 1012.4 1012.1 0.0
14/06:00pm 30.2 27.0 6.8 23 12.6 SE 13 15 7 8 1011.8 1011.5 0.0
14/05:30pm 31.6 28.0 6.6 21 13.5 SSE 15 19 8 10 1011.4 1011.1 0.0
14/05:00pm 33.2 28.6 6.5 19 14.5 SSE 20 28 11 15 1011.3 1011.0 0.0
14/04:30pm 34.1 30.0 6.4 18 15.1 SE 17 28 9 15 1011.0 1010.7 0.0
14/04:00pm 34.6 29.5 6.0 17 15.6 SE 22 33 12 18 1010.7 1010.4 0.0
14/03:30pm 35.2 30.8 6.5 17 15.8 SE 19 30 10 16 1010.6 1010.3 0.0
14/03:00pm 35.2 30.0 5.6 16 16.1 SSE 22 32 12 17 1010.6 1010.3 0.0
14/02:30pm 35.1 30.9 5.5 16 16.0 ESE 17 32 9 17 1010.6 1010.3 0.0
14/02:00pm 35.9 30.5 6.2 16 16.3 SE 24 33 13 18 1010.9 1010.6 0.0
14/01:30pm 35.3 31.1 5.7 16 16.1 E 17 26 9 14 1011.2 1010.9 0.0
14/01:00pm 35.0 31.1 5.4 16 16.0 E 15 28 8 15 1011.7 1011.4 0.0
14/12:30pm 34.9 31.4 5.4 16 15.9 ESE 13 30 7 16 1012.2 1011.9 0.0
14/12:00pm 34.2 30.4 5.7 17 15.4 E 15 35 8 19 1012.7 1012.4 0.0
14/11:30am 35.0 30.4 6.3 17 15.7 E 20 32 11 17 1013.1 1012.8 0.0
14/11:00am 33.7 28.8 5.3 17 15.2 E 20 35 11 19 1013.5 1013.2 0.0
14/10:30am 33.9 29.1 5.4 17 15.3 ENE 20 28 11 15 1013.9 1013.6 0.0
14/10:00am 33.3 29.1 5.8 18 14.8 E 17 24 9 13 1014.3 1014.0 0.0
14/09:30am 31.6 27.1 5.9 20 13.7 E 19 26 10 14 1014.5 1014.2 0.0
14/09:00am 31.1 27.0 6.2 21 13.3 E 17 24 9 13 1014.5 1014.2 0.0
14/08:30am 29.2 25.2 6.6 24 12.1 E 17 26 9 14 1014.4 1014.1 0.0
14/08:00am 26.4 22.6 7.4 30 10.1 ESE 17 20 9 11 1014.3 1014.0 0.0
14/07:30am 24.2 20.3 6.9 33 9.0 ESE 17 22 9 12 1014.0 1013.7 0.0
14/07:00am 22.7 18.8 7.3 37 8.0 SE 17 19 9 10 1013.9 1013.6 0.0
14/06:30am 21.2 17.3 7.1 40 7.2 ESE 17 20 9 11 1013.6 1013.3 0.0
14/06:00am 20.7 17.6 7.3 42 6.9 ESE 13 17 7 9 1013.3 1013.0 0.0
14/05:30am 21.1 18.0 7.3 41 7.1 ESE 13 19 7 10 1013.0 1012.7 0.0
14/05:00am 20.9 17.9 7.9 43 6.8 E 13 15 7 8 1012.7 1012.4 0.0
14/04:30am 20.2 17.7 8.2 46 6.3 E 11 13 6 7 1012.6 1012.3 0.0
14/04:00am 20.4 18.3 8.4 46 6.3 E 9 13 5 7 1012.5 1012.2 0.0
14/03:30am 17.2 15.4 9.6 61 4.0 ESE 9 11 5 6 1012.4 1012.1 0.0
14/03:00am 16.7 15.7 10.3 66 3.4 SE 6 9 3 5 1012.4 1012.1 0.0
14/02:30am 17.3 16.1 10.4 64 3.7 SE 7 7 4 4 1012.4 1012.1 0.0
14/02:00am 19.1 18.2 11.2 60 4.3 SSE 7 11 4 6 1012.5 1012.2 0.0
14/01:30am 18.5 17.2 10.1 58 4.5 S 7 9 4 5 1012.6 1012.3 0.0
14/01:00am 20.6 19.2 11.0 54 5.3 S 9 11 5 6 1012.9 1012.6 0.0
14/12:30am 21.6 19.8 11.0 51 5.9 SSW 11 13 6 7 1013.0 1012.7 0.0
14/12:00am 22.4 21.5 11.2 49 6.2 SW 7 11 4 6 1013.0 1012.7 0.0
 
Date/Time
WST
Temp
°C
App
Temp
°C
Dew
Point
°C
Rel
Hum
%
Delta-T
°C
Wind Press
QNH
hPa
Press
MSL
hPa
Rain since
9am
mm
Dir  Spd
km/h
Gust
km/h
Spd
kts
Gust
kts
13/11:30pm 21.1 20.2 11.2 53 5.5 SW 7 9 4 5 1013.2 1012.9 0.0
13/11:00pm 19.9 20.3 11.1 57 4.8 CALM 0 0 0 0 1013.3 1013.0 0.0
13/10:30pm 20.6 19.5 10.7 53 5.4 SE 7 9 4 5 1013.2 1012.9 0.0
13/10:00pm 21.0 19.7 11.1 53 5.5 SE 9 9 5 5 1013.3 1013.0 0.0
13/09:30pm 22.0 20.7 11.4 51 5.9 SSE 9 9 5 5 1013.3 1013.0 0.0
13/09:00pm 22.3 21.0 11.1 49 6.2 S 9 11 5 6 1013.3 1013.0 0.0
13/08:30pm 23.6 22.4 11.6 47 6.8 S 9 9 5 5 1013.2 1012.9 0.0
13/08:00pm 23.4 22.7 11.5 47 6.7 SSW 6 7 3 4 1013.0 1012.7 0.0
13/07:30pm 24.8 24.2 11.7 44 7.5 SW 6 7 3 4 1012.9 1012.6 0.0
13/07:00pm 26.3 26.2 12.0 41 8.2 SW 4 9 2 5 1012.5 1012.2 0.0
13/06:30pm 25.7 24.8 10.7 39 8.4 NW 6 7 3 4 1012.1 1011.8 0.0
13/06:00pm 28.4 27.0 11.0 34 10.0 WNW 9 11 5 6 1011.6 1011.3 0.0
13/05:30pm 30.3 28.6 9.8 28 11.6 WNW 9 13 5 7 1011.4 1011.1 0.0
13/05:00pm 32.4 30.1 10.4 26 12.7 WNW 13 17 7 9 1011.2 1010.9 0.0
13/04:30pm 33.5 30.6 9.5 23 13.7 W 15 19 8 10 1011.0 1010.7 0.0
13/04:00pm 33.6 30.5 10.2 24 13.5 NW 17 20 9 11 1011.0 1010.7 0.0
13/03:30pm 34.5 32.6 7.5 19 15.0 W 7 15 4 8 1011.0 1010.7 0.0
13/03:00pm 34.1 31.0 7.2 19 14.9 W 13 20 7 11 1011.1 1010.8 0.0
13/02:30pm 34.5 32.2 7.5 19 15.0 WSW 9 15 5 8 1011.3 1011.0 0.0
13/02:00pm 34.4 31.7 7.5 19 15.0 SW 11 19 6 10 1011.6 1011.3 0.0
13/01:30pm 33.7 31.4 7.6 20 14.5 NE 9 17 5 9 1012.0 1011.7 0.0
13/01:00pm 33.2 30.5 7.2 20 14.3 NE 11 20 6 11 1012.4 1012.1 0.0
13/12:30pm 33.3 30.6 7.3 20 14.3 NE 11 17 6 9 1012.8 1012.5 0.0
13/12:00pm 33.1 30.0 7.1 20 14.3 ENE 13 20 7 11 1013.2 1012.9 0.0
13/11:30am 32.8 29.4 7.6 21 13.9 NE 15 22 8 12 1013.7 1013.4 0.0
13/11:00am 31.8 27.8 6.8 21 13.6 NE 17 26 9 14 1014.2 1013.9 0.0
13/10:30am 31.5 28.0 7.2 22 13.3 ENE 15 20 8 11 1014.4 1014.1 0.0
13/10:00am 29.8 26.5 6.5 23 12.4 E 13 20 7 11 1015.0 1014.6 0.0
13/09:30am 28.7 25.0 6.1 24 11.9 E 15 24 8 13 1015.3 1014.9 0.0
13/09:00am 27.1 23.2 5.4 25 11.2 ESE 15 22 8 12 1015.3 1014.9 0.0
13/08:30am 25.7 20.8 5.3 27 10.4 ESE 20 28 11 15 1015.0 1014.6 0.0

Other formats

Comma delimited format used in spreadsheet applications
http://www.bom.gov.au/fwo/IDW60801/IDW60801.94204.axf

JavaScript Object Notation format (JSON) in row-major order
http://www.bom.gov.au/fwo/IDW60801/IDW60801.94204.json

Data quality

Most of these data are generated automatically and are frequently updated. Quality checks on data are not normally performed. It is possible for incorrect values to appear. Refer to information at About Latest Weather Observations and please check the disclaimer before using these data.